createdAt,value
2023-04-05T00:01:35.787Z,12.70
2023-04-05T00:04:02.884Z,11.50
2023-04-05T00:06:30.057Z,12.57
2023-04-05T00:08:57.274Z,11.87
2023-04-05T00:11:23.731Z,14.40
2023-04-05T00:13:50.279Z,13.57
2023-04-05T00:16:17.359Z,11.70
2023-04-05T00:18:49.986Z,9.53
2023-04-05T00:21:16.741Z,13.47
2023-04-05T00:23:45.119Z,10.10
2023-04-05T00:26:12.159Z,12.47
2023-04-05T00:28:38.492Z,11.17
2023-04-05T00:31:05.641Z,14.50
2023-04-05T00:33:32.165Z,8.77
2023-04-05T00:35:58.631Z,12.53
2023-04-05T00:38:25.084Z,9.60
2023-04-05T00:40:51.445Z,12.87
2023-04-05T00:43:17.808Z,11.10
2023-04-05T00:45:44.424Z,9.07
2023-04-05T00:48:11.859Z,10.37
2023-04-05T00:50:39.403Z,10.73
2023-04-05T00:53:06.048Z,9.73
2023-04-05T00:55:34.132Z,9.63
2023-04-05T00:58:00.606Z,8.47
2023-04-05T01:00:27.149Z,11.13
2023-04-05T01:02:58.243Z,11.23
2023-04-05T01:05:27.476Z,10.13
2023-04-05T01:07:58.830Z,11.07
2023-04-05T01:10:28.401Z,9.87
2023-04-05T01:12:55.028Z,10.53
2023-04-05T01:15:21.496Z,8.70
2023-04-05T01:17:48.986Z,9.97
2023-04-05T01:20:15.397Z,10.93
2023-04-05T01:22:54.037Z,8.93
2023-04-05T01:25:37.036Z,10.33
2023-04-05T01:28:03.395Z,9.70
2023-04-05T01:30:35.290Z,10.40
2023-04-05T01:33:04.894Z,9.73
2023-04-05T01:35:41.101Z,9.83
2023-04-05T01:38:10.404Z,8.63
2023-04-05T01:40:38.727Z,9.67
2023-04-05T01:43:15.266Z,8.60
2023-04-05T01:45:42.009Z,7.60
2023-04-05T01:48:08.405Z,9.43
2023-04-05T01:50:34.804Z,9.97
2023-04-05T01:53:01.409Z,7.97
2023-04-05T01:55:27.820Z,11.63
2023-04-05T01:57:55.687Z,12.43
2023-04-05T02:00:22.315Z,8.50
2023-04-05T02:02:48.731Z,9.97
2023-04-05T02:05:15.513Z,9.17
2023-04-05T02:07:41.894Z,12.37
2023-04-05T02:10:08.903Z,11.50
2023-04-05T02:12:35.314Z,12.40
2023-04-05T02:15:01.789Z,9.13
2023-04-05T02:17:34.238Z,11.87
2023-04-05T02:20:03.853Z,11.27
2023-04-05T02:22:30.194Z,13.87
2023-04-05T02:24:56.585Z,12.20
2023-04-05T02:27:22.911Z,12.60
2023-04-05T02:29:49.338Z,12.57
2023-04-05T02:32:15.841Z,9.47
2023-04-05T02:34:42.177Z,12.57
2023-04-05T02:37:08.530Z,11.83
2023-04-05T02:39:34.972Z,10.43
2023-04-05T02:42:01.400Z,9.90
2023-04-05T02:44:28.571Z,10.10
2023-04-05T02:46:54.948Z,12.13
2023-04-05T02:49:21.230Z,10.97
2023-04-05T02:51:47.551Z,9.83
2023-04-05T02:54:13.980Z,9.87
2023-04-05T02:56:40.820Z,17.93
2023-04-05T02:59:07.797Z,18.40
2023-04-05T03:01:36.687Z,13.60
2023-04-05T03:04:03.334Z,12.77
2023-04-05T03:06:31.600Z,12.30
2023-04-05T03:08:57.915Z,11.40
2023-04-05T03:11:24.337Z,9.67
2023-04-05T03:13:50.760Z,12.33
2023-04-05T03:16:17.239Z,11.43
2023-04-05T03:18:43.678Z,11.80
2023-04-05T03:21:12.420Z,7.97
2023-04-05T03:23:38.963Z,11.90
2023-04-05T03:26:05.382Z,11.67
2023-04-05T03:28:34.995Z,12.77
2023-04-05T03:31:01.379Z,13.63
2023-04-05T03:33:27.790Z,9.47
2023-04-05T03:35:54.150Z,11.50
2023-04-05T03:38:20.669Z,8.67
2023-04-05T03:40:47.075Z,8.77
2023-04-05T03:43:13.593Z,10.83
2023-04-05T03:45:40.197Z,9.83
2023-04-05T03:48:06.834Z,9.77
2023-04-05T03:50:33.323Z,8.37
2023-04-05T03:52:59.807Z,10.30
2023-04-05T03:55:26.260Z,11.17
2023-04-05T03:57:52.806Z,10.30
2023-04-05T04:00:20.434Z,7.93
2023-04-05T04:02:47.706Z,11.80
2023-04-05T04:05:14.701Z,10.13
2023-04-05T04:07:41.778Z,10.30
2023-04-05T04:10:09.028Z,10.17
2023-04-05T04:12:35.487Z,11.93
2023-04-05T04:15:02.176Z,10.57
2023-04-05T04:17:29.464Z,8.63
2023-04-05T04:19:56.665Z,8.00
2023-04-05T04:22:23.700Z,10.10
2023-04-05T04:24:50.244Z,9.77
2023-04-05T04:27:20.849Z,9.77
2023-04-05T04:29:47.484Z,14.30
2023-04-05T04:32:17.287Z,8.67
2023-04-05T04:34:46.619Z,9.03
2023-04-05T04:37:22.676Z,7.27
2023-04-05T04:39:49.227Z,11.10
2023-04-05T04:42:20.063Z,8.33
2023-04-05T04:44:46.452Z,9.90
2023-04-05T04:47:17.434Z,11.03
2023-04-05T04:49:43.776Z,10.97
2023-04-05T04:52:10.425Z,10.20
2023-04-05T04:54:36.806Z,9.53
2023-04-05T04:57:03.352Z,8.73
2023-04-05T04:59:29.894Z,11.13
2023-04-05T05:01:56.405Z,12.90
2023-04-05T05:04:23.572Z,8.47
2023-04-05T05:06:51.014Z,10.13
2023-04-05T05:09:17.356Z,13.27
2023-04-05T05:11:43.669Z,13.40
2023-04-05T05:14:10.231Z,13.03
2023-04-05T05:16:37.095Z,13.63
2023-04-05T05:19:03.604Z,10.17
2023-04-05T05:21:30.010Z,10.23
2023-04-05T05:23:56.454Z,10.43
2023-04-05T05:26:22.829Z,12.03
2023-04-05T05:28:49.967Z,10.13
2023-04-05T05:31:17.843Z,10.93
2023-04-05T05:33:47.856Z,11.30
2023-04-05T05:36:14.182Z,11.93
2023-04-05T05:38:43.043Z,10.70
2023-04-05T05:41:09.425Z,11.50
2023-04-05T05:43:35.800Z,11.47
2023-04-05T05:46:02.317Z,8.93
2023-04-05T05:48:28.729Z,10.27
2023-04-05T05:50:56.591Z,11.10
2023-04-05T05:53:22.980Z,9.97
2023-04-05T05:55:49.735Z,11.07
2023-04-05T05:58:16.240Z,13.93
2023-04-05T06:00:42.950Z,11.43
2023-04-05T06:03:10.212Z,11.47
2023-04-05T06:05:36.650Z,10.30
2023-04-05T06:08:03.961Z,6.83
2023-04-05T06:10:31.072Z,13.83
2023-04-05T06:12:57.436Z,14.00
2023-04-05T06:15:23.831Z,12.47
2023-04-05T06:17:50.356Z,14.77
2023-04-05T06:20:16.934Z,13.83
2023-04-05T06:22:44.448Z,11.20
2023-04-05T06:25:13.043Z,12.27
2023-04-05T06:27:39.583Z,17.60
2023-04-05T06:30:06.442Z,10.63
2023-04-05T06:32:32.821Z,10.83
2023-04-05T06:35:00.498Z,10.70
2023-04-05T06:37:26.952Z,12.07
2023-04-05T06:39:53.283Z,14.43
2023-04-05T06:42:20.141Z,11.87
2023-04-05T06:44:46.649Z,12.97
2023-04-05T06:47:13.285Z,10.20
2023-04-05T06:49:39.666Z,8.17
2023-04-05T06:52:06.731Z,8.90
2023-04-05T06:54:33.516Z,10.53
2023-04-05T06:57:01.826Z,8.40
2023-04-05T06:59:29.809Z,9.00
2023-04-05T07:01:56.587Z,10.10
2023-04-05T07:04:23.098Z,10.80
2023-04-05T07:06:49.613Z,12.80
2023-04-05T07:09:16.102Z,8.83
2023-04-05T07:11:42.625Z,10.77
2023-04-05T07:14:08.966Z,13.33
2023-04-05T07:16:35.623Z,12.93
2023-04-05T07:19:02.163Z,11.60
2023-04-05T07:21:28.688Z,9.87
2023-04-05T07:23:56.124Z,9.53
2023-04-05T07:26:23.001Z,9.13
2023-04-05T07:28:49.395Z,9.97
2023-04-05T07:31:16.548Z,12.03
2023-04-05T07:33:42.976Z,9.53
2023-04-05T07:36:09.450Z,10.73
2023-04-05T07:38:35.885Z,11.57
2023-04-05T07:41:02.258Z,10.80
2023-04-05T07:43:28.642Z,9.40
2023-04-05T07:46:01.548Z,10.23
2023-04-05T07:48:28.025Z,10.73
2023-04-05T07:50:54.611Z,11.53
2023-04-05T07:53:21.154Z,9.17
2023-04-05T07:55:48.059Z,9.37
2023-04-05T07:58:14.689Z,8.50
2023-04-05T08:00:42.078Z,11.93
2023-04-05T08:03:08.820Z,10.83
2023-04-05T08:05:35.316Z,12.97
2023-04-05T08:08:01.698Z,10.10
2023-04-05T08:10:28.100Z,10.83
2023-04-05T08:12:54.506Z,9.27
2023-04-05T08:15:21.311Z,10.63
2023-04-05T08:17:47.694Z,11.17
2023-04-05T08:20:14.189Z,10.97
2023-04-05T08:22:40.497Z,11.87
2023-04-05T08:25:07.248Z,10.43
2023-04-05T08:27:33.583Z,8.33
2023-04-05T08:30:01.136Z,9.50
2023-04-05T08:32:27.586Z,9.10
2023-04-05T08:34:54.056Z,7.83
2023-04-05T08:37:20.424Z,15.10
2023-04-05T08:39:46.804Z,10.17
2023-04-05T08:42:16.836Z,11.10
2023-04-05T08:44:44.394Z,11.80
2023-04-05T08:47:15.143Z,8.43
2023-04-05T08:49:45.375Z,10.20
2023-04-05T08:52:12.103Z,9.83
2023-04-05T08:54:38.532Z,10.30
2023-04-05T08:57:08.167Z,11.00
2023-04-05T08:59:37.385Z,9.67
2023-04-05T09:02:12.166Z,10.37
2023-04-05T09:04:40.347Z,10.97
2023-04-05T09:07:07.615Z,10.70
2023-04-05T09:09:36.264Z,9.10
2023-04-05T09:12:06.274Z,9.53
2023-04-05T09:14:34.212Z,10.90
2023-04-05T09:17:04.565Z,10.27
2023-04-05T09:19:30.973Z,11.30
2023-04-05T09:22:01.896Z,10.63
2023-04-05T09:24:31.197Z,9.57
2023-04-05T09:27:03.823Z,9.53
2023-04-05T09:29:30.589Z,9.80
2023-04-05T09:31:56.932Z,12.87
2023-04-05T09:34:24.014Z,11.37
2023-04-05T09:36:50.555Z,9.83
2023-04-05T09:39:21.643Z,9.93
2023-04-05T09:42:05.122Z,10.63
2023-04-05T09:44:50.506Z,9.17
2023-04-05T09:47:17.728Z,8.70
2023-04-05T09:49:44.169Z,9.90
2023-04-05T09:52:19.702Z,9.80
2023-04-05T09:54:46.049Z,11.63
2023-04-05T09:57:12.497Z,8.23
2023-04-05T09:59:42.063Z,10.73
2023-04-05T10:02:10.501Z,11.47
2023-04-05T10:04:43.933Z,8.63
2023-04-05T10:07:14.182Z,10.47
2023-04-05T10:09:41.622Z,8.40
2023-04-05T10:12:11.704Z,8.57
2023-04-05T10:14:38.513Z,8.63
2023-04-05T10:17:09.342Z,8.83
2023-04-05T10:19:48.376Z,9.83
2023-04-05T10:22:17.595Z,12.13
2023-04-05T10:24:49.048Z,10.13
2023-04-05T10:27:22.965Z,10.47
2023-04-05T10:30:11.242Z,12.13
2023-04-05T10:32:40.897Z,10.70
2023-04-05T10:35:16.376Z,10.50
2023-04-05T10:38:11.597Z,12.77
2023-04-05T10:40:38.096Z,8.63
2023-04-05T10:43:07.025Z,9.43
2023-04-05T10:45:35.774Z,8.90
2023-04-05T10:48:06.981Z,9.03
2023-04-05T10:50:34.184Z,8.07
2023-04-05T10:53:00.848Z,8.53
2023-04-05T10:55:28.089Z,10.90
2023-04-05T10:57:55.201Z,10.33
2023-04-05T11:00:23.220Z,18.47
2023-04-05T11:02:54.795Z,10.73
2023-04-05T11:05:31.979Z,9.60
2023-04-05T11:08:07.491Z,11.00
2023-04-05T11:10:34.977Z,11.10
2023-04-05T11:13:02.417Z,10.17
2023-04-05T11:15:33.039Z,10.60
2023-04-05T11:18:05.693Z,9.33
2023-04-05T11:20:40.025Z,8.87
2023-04-05T11:23:06.757Z,8.07
2023-04-05T11:25:37.240Z,9.70
2023-04-05T11:28:05.335Z,9.43
2023-04-05T11:30:48.496Z,12.77
2023-04-05T11:33:33.589Z,8.03
2023-04-05T11:36:03.718Z,9.87
2023-04-05T11:38:30.258Z,10.63
2023-04-05T11:41:17.824Z,9.67
2023-04-05T11:43:47.903Z,12.40
2023-04-05T11:46:15.633Z,7.93
2023-04-05T11:48:42.302Z,10.80
2023-04-05T11:51:10.017Z,9.73
2023-04-05T11:53:36.967Z,11.13
2023-04-05T11:56:10.275Z,10.60
2023-04-05T11:58:37.148Z,9.23
2023-04-05T12:01:04.882Z,11.07
2023-04-05T12:03:31.589Z,8.10
2023-04-05T12:05:59.521Z,8.67
2023-04-05T12:08:38.068Z,9.87
2023-04-05T12:11:06.967Z,10.33
2023-04-05T12:13:33.855Z,10.50
2023-04-05T12:16:01.670Z,8.83
2023-04-05T12:18:30.185Z,9.87
2023-04-05T12:20:56.630Z,9.33
2023-04-05T12:23:23.760Z,10.17
2023-04-05T12:25:50.845Z,10.57
2023-04-05T12:28:17.493Z,9.70
2023-04-05T12:30:50.686Z,9.27
2023-04-05T12:33:25.969Z,10.93
2023-04-05T12:35:52.372Z,11.03
2023-04-05T12:38:18.853Z,12.27
2023-04-05T12:40:45.782Z,12.37
2023-04-05T12:43:12.136Z,10.03
2023-04-05T12:45:43.816Z,9.87
2023-04-05T12:48:13.177Z,10.57
2023-04-05T12:50:44.472Z,14.37
2023-04-05T12:53:17.798Z,11.33
2023-04-05T12:55:47.824Z,12.20
2023-04-05T12:58:14.725Z,9.20
2023-04-05T13:00:41.272Z,13.47
2023-04-05T13:03:15.672Z,12.37
2023-04-05T13:05:42.535Z,15.47
2023-04-05T13:08:09.152Z,16.13
2023-04-05T13:10:35.772Z,16.80
2023-04-05T13:13:02.286Z,17.63
2023-04-05T13:15:28.637Z,16.40
2023-04-05T13:17:55.168Z,18.20
2023-04-05T13:20:21.666Z,12.77
2023-04-05T13:22:49.376Z,14.97
2023-04-05T13:25:15.912Z,16.80
2023-04-05T13:27:42.460Z,16.77
2023-04-05T13:30:09.259Z,17.23
2023-04-05T13:32:36.031Z,16.03
2023-04-05T13:35:02.564Z,17.13
2023-04-05T13:37:32.102Z,19.47
2023-04-05T13:39:58.661Z,19.17
2023-04-05T13:42:25.057Z,19.90
2023-04-05T13:44:51.544Z,18.77
2023-04-05T13:47:17.989Z,20.60
2023-04-05T13:49:44.405Z,18.37
2023-04-05T13:52:11.299Z,18.27
2023-04-05T13:54:38.687Z,18.83
2023-04-05T13:57:05.692Z,18.27
2023-04-05T13:59:32.462Z,21.10
2023-04-05T14:01:59.009Z,20.33
2023-04-05T14:04:28.539Z,19.47
2023-04-05T14:06:54.927Z,19.10
2023-04-05T14:09:21.358Z,23.03
2023-04-05T14:11:47.666Z,19.97
2023-04-05T14:14:15.511Z,23.93
2023-04-05T14:16:42.031Z,18.57
2023-04-05T14:19:08.949Z,19.73
2023-04-05T14:21:37.189Z,20.47
2023-04-05T14:24:03.697Z,21.97
2023-04-05T14:26:30.243Z,20.70
2023-04-05T14:28:56.670Z,20.57
2023-04-05T14:31:25.205Z,22.33
2023-04-05T14:33:51.867Z,19.30
2023-04-05T14:36:18.311Z,23.73
2023-04-05T14:38:44.647Z,22.17
2023-04-05T14:41:11.320Z,20.67
2023-04-05T14:43:37.763Z,23.23
2023-04-05T14:46:04.377Z,25.87
2023-04-05T14:48:31.897Z,23.33
2023-04-05T14:50:59.033Z,19.83
2023-04-05T14:53:25.600Z,23.63
2023-04-05T14:55:52.448Z,23.47
2023-04-05T14:58:18.776Z,22.87
2023-04-05T15:00:45.305Z,22.83
2023-04-05T15:03:11.882Z,25.20
2023-04-05T15:05:38.379Z,23.03
2023-04-05T15:08:04.899Z,21.80
2023-04-05T15:10:31.440Z,21.77
2023-04-05T15:12:57.981Z,21.27
2023-04-05T15:15:25.445Z,25.67
2023-04-05T15:17:51.911Z,18.60
2023-04-05T15:20:19.479Z,23.67
2023-04-05T15:22:45.867Z,23.13
2023-04-05T15:25:12.220Z,23.53
2023-04-05T15:27:38.630Z,23.97
2023-04-05T15:30:05.465Z,23.20
2023-04-05T15:32:33.829Z,24.23
2023-04-05T15:35:01.189Z,22.47
2023-04-05T15:37:27.846Z,20.80
2023-04-05T15:39:54.264Z,24.17
2023-04-05T15:42:21.825Z,19.97
2023-04-05T15:44:48.539Z,24.60
2023-04-05T15:47:15.017Z,21.90
2023-04-05T15:49:43.219Z,20.20
2023-04-05T15:52:12.740Z,22.90
2023-04-05T15:54:39.151Z,26.43
2023-04-05T15:57:05.655Z,27.27
2023-04-05T15:59:32.170Z,25.23
2023-04-05T16:01:58.693Z,24.20
2023-04-05T16:04:27.807Z,23.03
2023-04-05T16:06:54.722Z,26.20
2023-04-05T16:09:21.206Z,24.27
2023-04-05T16:11:47.711Z,24.57
2023-04-05T16:14:14.316Z,26.93
2023-04-05T16:16:50.564Z,22.87
2023-04-05T16:19:19.922Z,23.00
2023-04-05T16:21:46.524Z,21.07
2023-04-05T16:24:12.973Z,28.53
2023-04-05T16:26:39.374Z,26.10
2023-04-05T16:29:05.752Z,26.10
2023-04-05T16:31:32.866Z,25.37
2023-04-05T16:33:59.308Z,23.13
2023-04-05T16:36:25.897Z,26.70
2023-04-05T16:38:52.340Z,29.33
2023-04-05T16:41:19.873Z,25.70
2023-04-05T16:43:46.413Z,28.83
2023-04-05T16:46:12.819Z,28.70
2023-04-05T16:48:39.252Z,28.37
2023-04-05T16:51:07.155Z,25.40
2023-04-05T16:53:34.029Z,26.47
2023-04-05T16:56:00.401Z,28.20
2023-04-05T16:58:26.807Z,24.23
2023-04-05T17:00:58.594Z,26.70
2023-04-05T17:03:26.300Z,24.27
2023-04-05T17:05:52.880Z,25.23
2023-04-05T17:08:19.422Z,24.90
2023-04-05T17:10:45.956Z,25.77
2023-04-05T17:13:12.355Z,26.93
2023-04-05T17:15:38.780Z,29.87
2023-04-05T17:18:06.061Z,28.93
2023-04-05T17:20:32.628Z,26.53
2023-04-05T17:22:59.571Z,26.43
2023-04-05T17:25:26.116Z,29.70
2023-04-05T17:27:52.476Z,28.97
2023-04-05T17:30:18.909Z,28.60
2023-04-05T17:32:45.265Z,29.13
2023-04-05T17:35:11.867Z,28.40
2023-04-05T17:37:39.342Z,28.27
2023-04-05T17:40:06.197Z,27.67
2023-04-05T17:42:32.715Z,26.63
2023-04-05T17:44:59.110Z,29.70
2023-04-05T17:47:25.578Z,28.43
2023-04-05T17:49:51.941Z,31.80
2023-04-05T17:52:18.409Z,26.47
2023-04-05T17:54:44.727Z,26.97
2023-04-05T17:57:15.595Z,25.40
2023-04-05T17:59:42.465Z,27.33
2023-04-05T18:02:12.700Z,27.47
2023-04-05T18:04:39.837Z,31.70
2023-04-05T18:07:06.323Z,28.87
2023-04-05T18:09:33.270Z,27.17
2023-04-05T18:12:00.232Z,31.33
2023-04-05T18:14:26.578Z,29.37
2023-04-05T18:16:53.111Z,29.63
2023-04-05T18:19:21.768Z,37.20
2023-04-05T18:21:48.218Z,28.63
2023-04-05T18:24:14.931Z,27.20
2023-04-05T18:26:41.546Z,27.73
2023-04-05T18:29:08.333Z,32.43
2023-04-05T18:31:34.848Z,30.33
2023-04-05T18:34:01.596Z,30.17
2023-04-05T18:36:28.048Z,31.33
2023-04-05T18:38:56.002Z,28.23
2023-04-05T18:41:22.429Z,27.17
2023-04-05T18:43:53.364Z,27.83
2023-04-05T18:46:21.495Z,28.10
2023-04-05T18:48:54.141Z,28.73
2023-04-05T18:51:21.849Z,32.03
2023-04-05T18:53:48.628Z,31.30
2023-04-05T18:56:15.447Z,29.10
2023-04-05T18:58:41.980Z,30.33
2023-04-05T19:01:14.416Z,24.07
2023-04-05T19:03:41.201Z,26.30
2023-04-05T19:06:07.597Z,29.60
2023-04-05T19:08:33.970Z,27.40
2023-04-05T19:11:00.436Z,27.90
2023-04-05T19:13:26.844Z,28.67
2023-04-05T19:15:53.433Z,30.77
2023-04-05T19:18:22.957Z,34.80
2023-04-05T19:20:52.582Z,32.50
2023-04-05T19:23:18.952Z,29.27
2023-04-05T19:25:46.425Z,30.97
2023-04-05T19:28:12.749Z,36.00
2023-04-05T19:30:40.323Z,35.57
2023-04-05T19:33:06.866Z,33.93
2023-04-05T19:35:33.298Z,33.40
2023-04-05T19:37:59.731Z,28.13
2023-04-05T19:40:27.006Z,35.57
2023-04-05T19:42:53.441Z,33.70
2023-04-05T19:45:27.680Z,32.27
2023-04-05T19:47:55.010Z,35.07
2023-04-05T19:50:44.519Z,26.67
2023-04-05T19:53:31.119Z,34.63
2023-04-05T19:55:57.450Z,33.13
2023-04-05T19:58:27.944Z,32.37
2023-04-05T20:00:55.368Z,32.03
2023-04-05T20:03:35.206Z,29.60
2023-04-05T20:06:07.914Z,30.17
2023-04-05T20:08:43.932Z,29.17
2023-04-05T20:11:16.222Z,33.27
2023-04-05T20:13:52.754Z,31.03
2023-04-05T20:16:23.217Z,33.10
2023-04-05T20:18:49.834Z,30.77
2023-04-05T20:21:16.385Z,29.73
2023-04-05T20:23:43.553Z,29.53
2023-04-05T20:26:16.513Z,30.27
2023-04-05T20:28:53.216Z,33.53
2023-04-05T20:31:24.167Z,34.37
2023-04-05T20:33:54.310Z,27.80
2023-04-05T20:36:30.914Z,34.97
2023-04-05T20:38:57.294Z,31.80
2023-04-05T20:41:23.759Z,33.07
2023-04-05T20:43:50.267Z,35.30
2023-04-05T20:46:17.095Z,30.30
2023-04-05T20:48:43.951Z,30.17
2023-04-05T20:51:10.846Z,27.60
2023-04-05T20:53:37.635Z,31.00
2023-04-05T20:56:04.786Z,32.33
2023-04-05T20:58:31.555Z,35.30
2023-04-05T21:00:57.983Z,37.63
2023-04-05T21:03:24.617Z,31.27
2023-04-05T21:05:51.462Z,28.60
2023-04-05T21:08:21.446Z,38.77
2023-04-05T21:10:47.959Z,31.53
2023-04-05T21:13:14.380Z,37.10
2023-04-05T21:15:40.864Z,26.87
2023-04-05T21:18:08.400Z,33.73
2023-04-05T21:20:35.869Z,34.80
2023-04-05T21:23:05.690Z,32.00
2023-04-05T21:25:32.135Z,27.13
2023-04-05T21:28:01.629Z,33.30
2023-04-05T21:30:28.582Z,35.60
2023-04-05T21:32:55.161Z,32.93
2023-04-05T21:35:22.548Z,34.77
2023-04-05T21:37:50.220Z,33.27
2023-04-05T21:40:16.877Z,30.10
2023-04-05T21:42:43.213Z,30.97
2023-04-05T21:45:10.155Z,32.53
2023-04-05T21:47:36.599Z,30.60
2023-04-05T21:50:03.507Z,33.60
2023-04-05T21:52:30.911Z,34.63
2023-04-05T21:54:58.774Z,31.53
2023-04-05T21:57:25.347Z,31.97
2023-04-05T21:59:51.816Z,36.33
2023-04-05T22:02:18.354Z,28.77
2023-04-05T22:04:44.683Z,25.90
2023-04-05T22:07:11.252Z,37.07
2023-04-05T22:09:37.838Z,33.83
2023-04-05T22:12:04.343Z,35.20
2023-04-05T22:14:30.741Z,33.90
2023-04-05T22:16:57.790Z,37.93
2023-04-05T22:19:24.510Z,35.57
2023-04-05T22:21:50.942Z,35.93
2023-04-05T22:24:17.364Z,43.07
2023-04-05T22:26:44.150Z,35.70
2023-04-05T22:29:11.080Z,35.03
2023-04-05T22:31:38.621Z,37.67
2023-04-05T22:34:05.037Z,33.83
2023-04-05T22:36:31.685Z,36.37
2023-04-05T22:38:58.110Z,38.87
2023-04-05T22:41:24.452Z,38.17
2023-04-05T22:43:50.989Z,35.33
2023-04-05T22:46:17.476Z,34.70
2023-04-05T22:48:44.025Z,38.30
2023-04-05T22:51:10.574Z,40.13
2023-04-05T22:53:37.044Z,37.00
2023-04-05T22:56:03.448Z,37.47
2023-04-05T22:58:32.748Z,41.57
2023-04-05T23:00:59.507Z,41.63
2023-04-05T23:03:26.773Z,34.83
2023-04-05T23:05:53.181Z,42.37
2023-04-05T23:08:21.589Z,43.77
2023-04-05T23:10:48.220Z,38.93
2023-04-05T23:13:15.036Z,38.70
2023-04-05T23:15:41.636Z,38.70
2023-04-05T23:18:08.046Z,38.77
2023-04-05T23:20:34.460Z,48.20
2023-04-05T23:23:02.553Z,37.63
2023-04-05T23:25:28.984Z,36.37
2023-04-05T23:27:55.396Z,39.63
2023-04-05T23:30:21.714Z,39.43
2023-04-05T23:32:48.233Z,35.40
2023-04-05T23:35:15.513Z,38.50
2023-04-05T23:37:41.921Z,37.90
2023-04-05T23:40:08.568Z,43.70
2023-04-05T23:42:35.257Z,41.43
2023-04-05T23:45:04.278Z,37.07
2023-04-05T23:47:30.711Z,35.17
2023-04-05T23:49:57.155Z,35.47
2023-04-05T23:52:23.603Z,42.97
2023-04-05T23:54:49.920Z,41.00
2023-04-05T23:57:16.299Z,39.57
2023-04-05T23:59:42.703Z,44.97
